createdAt,value
2022-11-15T00:02:20.402Z,11.93
2022-11-15T00:05:09.436Z,10.10
2022-11-15T00:07:57.568Z,9.75
2022-11-15T00:10:47.006Z,9.65
2022-11-15T00:13:35.965Z,9.32
2022-11-15T00:16:24.924Z,7.45
2022-11-15T00:19:13.262Z,11.95
2022-11-15T00:22:02.302Z,9.85
2022-11-15T00:24:50.639Z,10.38
2022-11-15T00:27:39.760Z,9.82
2022-11-15T00:30:29.262Z,9.85
2022-11-15T00:33:18.240Z,8.10
2022-11-15T00:36:15.024Z,11.05
2022-11-15T00:39:04.177Z,8.60
2022-11-15T00:41:52.512Z,12.45
2022-11-15T00:44:41.871Z,13.35
2022-11-15T00:47:31.028Z,11.98
2022-11-15T00:50:20.416Z,9.70
2022-11-15T00:53:08.496Z,12.73
2022-11-15T00:55:57.228Z,13.45
2022-11-15T00:58:47.892Z,11.98
2022-11-15T01:01:37.243Z,9.10
2022-11-15T01:04:26.545Z,10.95
2022-11-15T01:07:15.653Z,9.60
2022-11-15T01:10:04.746Z,10.43
2022-11-15T01:12:53.472Z,12.50
2022-11-15T01:15:46.094Z,10.43
2022-11-15T01:18:34.509Z,9.00
2022-11-15T01:21:23.930Z,9.32
2022-11-15T01:24:16.459Z,8.25
2022-11-15T01:27:05.503Z,9.20
2022-11-15T01:29:54.071Z,10.15
2022-11-15T01:32:43.330Z,9.65
2022-11-15T01:35:31.803Z,11.55
2022-11-15T01:38:20.144Z,10.93
2022-11-15T01:41:09.340Z,8.13
2022-11-15T01:44:00.394Z,8.77
2022-11-15T01:46:51.231Z,9.10
2022-11-15T01:49:43.864Z,9.60
2022-11-15T01:52:36.163Z,6.68
2022-11-15T01:55:28.357Z,9.20
2022-11-15T01:58:17.161Z,7.70
2022-11-15T02:01:05.765Z,9.98
2022-11-15T02:04:09.318Z,8.23
2022-11-15T02:06:58.319Z,8.93
2022-11-15T02:09:49.023Z,10.13
2022-11-15T02:12:38.323Z,10.43
2022-11-15T02:15:39.841Z,7.82
2022-11-15T02:18:44.555Z,6.63
2022-11-15T02:21:52.361Z,10.20
2022-11-15T02:25:05.650Z,8.00
2022-11-15T02:28:54.827Z,8.18
2022-11-15T02:31:55.239Z,8.02
2022-11-15T02:35:25.628Z,8.60
2022-11-15T02:38:42.836Z,6.13
2022-11-15T02:41:45.006Z,7.15
2022-11-15T02:44:47.097Z,7.95
2022-11-15T02:47:44.544Z,8.52
2022-11-15T02:50:35.318Z,6.63
2022-11-15T02:53:29.231Z,7.67
2022-11-15T02:56:17.670Z,9.18
2022-11-15T02:59:29.148Z,7.57
2022-11-15T03:02:39.431Z,7.32
2022-11-15T03:05:28.019Z,5.72
2022-11-15T03:08:37.367Z,5.60
2022-11-15T03:11:27.103Z,9.52
2022-11-15T03:14:29.533Z,8.38
2022-11-15T03:17:32.039Z,8.10
2022-11-15T03:20:22.492Z,6.32
2022-11-15T03:23:13.508Z,5.18
2022-11-15T03:26:04.303Z,8.25
2022-11-15T03:28:52.762Z,9.57
2022-11-15T03:31:51.390Z,6.85
2022-11-15T03:35:07.478Z,5.72
2022-11-15T03:37:58.636Z,7.75
2022-11-15T03:40:54.338Z,8.55
2022-11-15T03:43:56.564Z,6.13
2022-11-15T03:47:05.281Z,5.22
2022-11-15T03:50:03.729Z,6.22
2022-11-15T03:52:54.646Z,10.00
2022-11-15T03:55:43.246Z,6.32
2022-11-15T03:58:31.758Z,6.47
2022-11-15T04:01:20.073Z,6.97
2022-11-15T04:04:08.576Z,6.18
2022-11-15T04:06:57.043Z,8.80
2022-11-15T04:10:03.546Z,6.00
2022-11-15T04:12:52.353Z,6.45
2022-11-15T04:15:41.100Z,6.07
2022-11-15T04:18:29.526Z,5.88
2022-11-15T04:21:36.228Z,7.82
2022-11-15T04:24:24.850Z,6.75
2022-11-15T04:27:15.969Z,9.35
2022-11-15T04:30:04.490Z,8.13
2022-11-15T04:32:53.027Z,8.95
2022-11-15T04:35:42.038Z,7.70
2022-11-15T04:38:30.511Z,5.40
2022-11-15T04:41:19.374Z,5.90
2022-11-15T04:44:08.269Z,7.03
2022-11-15T04:46:56.986Z,8.23
2022-11-15T04:49:47.224Z,5.95
2022-11-15T04:52:35.934Z,6.85
2022-11-15T04:55:24.572Z,7.88
2022-11-15T04:58:13.520Z,7.38
2022-11-15T05:01:02.280Z,6.60
2022-11-15T05:04:09.198Z,9.43
2022-11-15T05:06:57.958Z,6.97
2022-11-15T05:09:46.794Z,7.40
2022-11-15T05:12:35.438Z,8.93
2022-11-15T05:15:24.153Z,7.20
2022-11-15T05:18:12.594Z,7.82
2022-11-15T05:21:07.690Z,10.45
2022-11-15T05:23:57.718Z,10.48
2022-11-15T05:26:46.172Z,7.18
2022-11-15T05:29:34.797Z,7.80
2022-11-15T05:32:23.956Z,6.15
2022-11-15T05:35:19.788Z,9.32
2022-11-15T05:38:08.806Z,7.18
2022-11-15T05:40:58.206Z,9.50
2022-11-15T05:43:47.500Z,6.60
2022-11-15T05:46:37.914Z,8.18
2022-11-15T05:49:31.273Z,7.60
2022-11-15T05:52:24.016Z,5.63
2022-11-15T05:55:13.346Z,7.25
2022-11-15T05:58:01.746Z,7.18
2022-11-15T06:00:51.135Z,7.20
2022-11-15T06:03:39.783Z,6.85
2022-11-15T06:06:28.358Z,5.53
2022-11-15T06:09:16.767Z,6.28
2022-11-15T06:12:05.255Z,7.15
2022-11-15T06:14:53.862Z,5.60
2022-11-15T06:17:42.409Z,6.43
2022-11-15T06:20:32.278Z,7.22
2022-11-15T06:23:20.881Z,5.78
2022-11-15T06:26:09.113Z,6.15
2022-11-15T06:28:57.917Z,4.30
2022-11-15T06:31:46.547Z,6.50
2022-11-15T06:34:35.077Z,5.70
2022-11-15T06:37:23.292Z,8.80
2022-11-15T06:40:13.195Z,9.20
2022-11-15T06:43:03.021Z,5.60
2022-11-15T06:45:51.471Z,6.38
2022-11-15T06:48:40.083Z,7.40
2022-11-15T06:51:28.568Z,5.22
2022-11-15T06:54:16.861Z,7.50
2022-11-15T06:57:07.298Z,5.93
2022-11-15T06:59:55.552Z,4.95
2022-11-15T07:02:43.925Z,5.40
2022-11-15T07:05:32.766Z,4.57
2022-11-15T07:08:21.227Z,5.20
2022-11-15T07:11:12.035Z,6.35
2022-11-15T07:14:00.552Z,4.80
2022-11-15T07:16:48.862Z,8.20
2022-11-15T07:19:37.786Z,4.40
2022-11-15T07:22:26.037Z,6.22
2022-11-15T07:25:14.953Z,4.50
2022-11-15T07:28:04.442Z,4.78
2022-11-15T07:30:53.512Z,6.07
2022-11-15T07:33:42.277Z,8.07
2022-11-15T07:36:30.852Z,4.53
2022-11-15T07:39:19.540Z,6.35
2022-11-15T07:42:27.070Z,6.28
2022-11-15T07:45:15.673Z,4.63
2022-11-15T07:48:04.136Z,7.35
2022-11-15T07:50:52.833Z,5.82
2022-11-15T07:53:41.378Z,6.57
2022-11-15T07:56:29.964Z,5.65
2022-11-15T07:59:18.222Z,4.45
2022-11-15T08:02:07.174Z,6.22
2022-11-15T08:04:56.127Z,6.10
2022-11-15T08:07:44.838Z,5.03
2022-11-15T08:10:36.450Z,4.57
2022-11-15T08:13:29.261Z,5.38
2022-11-15T08:16:17.952Z,6.47
2022-11-15T08:19:06.622Z,5.50
2022-11-15T08:21:55.088Z,7.25
2022-11-15T08:24:43.865Z,7.68
2022-11-15T08:27:32.421Z,6.70
2022-11-15T08:30:20.811Z,4.90
2022-11-15T08:33:09.613Z,6.72
2022-11-15T08:36:01.382Z,5.00
2022-11-15T08:38:49.990Z,5.05
2022-11-15T08:41:41.364Z,7.85
2022-11-15T08:44:29.858Z,4.90
2022-11-15T08:47:18.665Z,5.05
2022-11-15T08:50:07.736Z,6.15
2022-11-15T08:52:56.382Z,5.45
2022-11-15T08:55:44.925Z,4.82
2022-11-15T08:58:34.059Z,6.05
2022-11-15T09:01:24.263Z,7.15
2022-11-15T09:04:13.019Z,5.15
2022-11-15T09:07:02.430Z,6.72
2022-11-15T09:09:50.985Z,5.88
2022-11-15T09:12:40.231Z,6.57
2022-11-15T09:15:28.869Z,5.40
2022-11-15T09:18:17.596Z,5.05
2022-11-15T09:21:07.651Z,8.23
2022-11-15T09:23:56.468Z,5.20
2022-11-15T09:29:49.278Z,6.90
2022-11-15T09:32:39.574Z,4.50
2022-11-15T09:35:28.117Z,6.38
2022-11-15T09:38:16.655Z,5.15
2022-11-15T09:41:17.615Z,7.70
2022-11-15T09:44:25.342Z,5.30
2022-11-15T09:47:38.030Z,5.53
2022-11-15T09:50:52.596Z,4.70
2022-11-15T09:54:13.597Z,5.10
2022-11-15T09:56:26.426Z,6.63
2022-11-15T09:59:18.158Z,5.00
2022-11-15T10:01:51.346Z,5.90
2022-11-15T10:04:22.178Z,6.97
2022-11-15T10:07:18.757Z,6.15
2022-11-15T10:09:59.756Z,5.75
2022-11-15T10:12:31.637Z,5.00
2022-11-15T10:15:16.448Z,6.68
2022-11-15T10:18:04.916Z,7.72
2022-11-15T10:20:44.169Z,4.97
2022-11-15T10:23:19.463Z,5.25
2022-11-15T10:25:50.145Z,5.07
2022-11-15T10:28:36.094Z,7.17
2022-11-15T10:31:08.739Z,7.07
2022-11-15T10:33:44.177Z,5.25
2022-11-15T10:36:17.172Z,4.43
2022-11-15T10:38:53.491Z,5.28
2022-11-15T10:41:34.595Z,6.95
2022-11-15T10:44:10.478Z,5.47
2022-11-15T10:46:47.273Z,5.80
2022-11-15T10:49:25.346Z,5.10
2022-11-15T10:51:57.341Z,6.68
2022-11-15T10:54:39.180Z,4.65
2022-11-15T10:57:18.109Z,4.90
2022-11-15T10:59:57.347Z,4.88
2022-11-15T11:02:42.651Z,5.05
2022-11-15T11:05:41.681Z,5.63
2022-11-15T11:08:15.049Z,8.23
2022-11-15T11:11:04.422Z,6.75
2022-11-15T11:13:37.704Z,6.07
2022-11-15T11:16:36.386Z,5.30
2022-11-15T11:19:39.900Z,5.47
2022-11-15T11:22:27.932Z,6.43
2022-11-15T11:25:28.959Z,5.82
2022-11-15T11:28:23.215Z,8.63
2022-11-15T11:31:11.343Z,5.95
2022-11-15T11:34:19.009Z,7.30
2022-11-15T11:37:01.063Z,7.50
2022-11-15T11:40:10.206Z,7.78
2022-11-15T11:43:02.242Z,10.45
2022-11-15T11:45:37.762Z,9.15
2022-11-15T11:48:23.069Z,8.30
2022-11-15T11:50:53.538Z,6.45
2022-11-15T11:53:34.771Z,8.47
2022-11-15T11:56:20.907Z,8.07
2022-11-15T11:58:54.209Z,6.28
2022-11-15T12:01:29.331Z,9.82
2022-11-15T12:04:05.478Z,7.05
2022-11-15T12:06:53.773Z,7.07
2022-11-15T12:09:45.638Z,6.72
2022-11-15T12:13:08.546Z,8.98
2022-11-15T12:16:10.871Z,8.30
2022-11-15T12:18:41.659Z,7.38
2022-11-15T12:21:28.338Z,8.15
2022-11-15T12:24:10.738Z,9.68
2022-11-15T12:26:50.808Z,8.35
2022-11-15T12:29:31.874Z,10.63
2022-11-15T12:32:06.917Z,11.73
2022-11-15T12:34:57.070Z,9.50
2022-11-15T12:37:43.722Z,11.30
2022-11-15T12:40:24.983Z,9.55
2022-11-15T12:43:05.913Z,10.23
2022-11-15T12:45:42.168Z,10.88
2022-11-15T12:48:21.622Z,10.80
2022-11-15T12:51:01.613Z,11.05
2022-11-15T12:53:38.082Z,9.63
2022-11-15T12:56:08.230Z,13.15
2022-11-15T12:59:01.172Z,9.48
2022-11-15T13:01:37.352Z,10.68
2022-11-15T13:04:22.454Z,11.50
2022-11-15T13:07:07.149Z,15.57
2022-11-15T13:09:40.354Z,13.73
2022-11-15T13:12:31.391Z,12.20
2022-11-15T13:15:25.139Z,12.13
2022-11-15T13:18:00.066Z,12.57
2022-11-15T13:20:35.738Z,15.10
2022-11-15T13:23:11.804Z,17.65
2022-11-15T13:34:54.217Z,17.88
2022-11-15T13:37:24.290Z,19.33
2022-11-15T13:39:54.728Z,15.43
2022-11-15T13:42:25.484Z,32.40
2022-11-15T13:45:04.172Z,18.83
2022-11-15T13:47:34.898Z,15.10
2022-11-15T13:50:09.714Z,21.25
2022-11-15T13:52:46.367Z,25.95
2022-11-15T13:55:26.486Z,21.25
2022-11-15T13:58:03.126Z,23.25
2022-11-15T14:00:47.604Z,25.13
2022-11-15T14:03:34.727Z,20.63
2022-11-15T14:06:04.853Z,16.42
2022-11-15T14:08:35.239Z,15.48
2022-11-15T14:11:16.128Z,16.88
2022-11-15T14:14:22.785Z,10.80
2022-11-15T14:16:57.066Z,13.18
2022-11-15T14:19:27.247Z,7.68
2022-11-15T14:22:18.300Z,11.82
2022-11-15T14:25:07.536Z,5.97
2022-11-15T14:27:38.608Z,10.43
2022-11-15T14:30:09.707Z,10.02
2022-11-15T14:32:58.061Z,11.85
2022-11-15T14:35:28.614Z,10.77
2022-11-15T14:37:58.802Z,12.07
2022-11-15T14:40:28.850Z,11.45
2022-11-15T14:42:58.918Z,7.70
2022-11-15T14:45:31.341Z,6.53
2022-11-15T14:48:01.574Z,10.85
2022-11-15T14:50:32.029Z,10.88
2022-11-15T14:53:02.289Z,12.40
2022-11-15T14:55:35.637Z,7.60
2022-11-15T14:58:07.359Z,6.93
2022-11-15T15:00:42.917Z,7.38
2022-11-15T15:03:13.350Z,9.60
2022-11-15T15:05:46.316Z,5.63
2022-11-15T15:08:16.472Z,6.18
2022-11-15T15:10:48.699Z,5.40
2022-11-15T15:13:22.572Z,7.10
2022-11-15T15:15:54.659Z,6.43
2022-11-15T15:18:25.679Z,7.50
2022-11-15T15:21:06.410Z,6.23
2022-11-15T15:23:38.827Z,3.93
2022-11-15T15:26:09.157Z,5.90
2022-11-15T15:28:40.409Z,6.30
2022-11-15T15:31:12.826Z,5.57
2022-11-15T15:33:43.118Z,7.78
2022-11-15T15:36:15.803Z,9.20
2022-11-15T15:38:46.184Z,8.25
2022-11-15T15:41:18.109Z,5.33
2022-11-15T15:43:48.477Z,5.50
2022-11-15T15:46:21.702Z,7.87
2022-11-15T15:48:51.898Z,6.20
2022-11-15T15:51:21.978Z,7.75
2022-11-15T15:53:53.876Z,7.05
2022-11-15T15:56:23.985Z,5.63
2022-11-15T15:58:55.737Z,5.90
2022-11-15T16:01:26.055Z,7.80
2022-11-15T16:03:56.410Z,8.00
2022-11-15T16:06:42.307Z,6.32
2022-11-15T16:09:19.968Z,4.18
2022-11-15T16:11:51.023Z,7.07
2022-11-15T16:14:21.045Z,5.85
2022-11-15T16:16:51.414Z,5.75
2022-11-15T16:19:21.575Z,4.72
2022-11-15T16:21:51.694Z,5.20
2022-11-15T16:24:23.421Z,7.30
2022-11-15T16:26:54.620Z,6.35
2022-11-15T16:29:24.941Z,5.35
2022-11-15T16:31:55.210Z,5.90
2022-11-15T16:34:29.978Z,9.25
2022-11-15T16:37:01.320Z,5.75
2022-11-15T16:39:33.111Z,4.85
2022-11-15T16:42:05.603Z,4.95
2022-11-15T16:44:35.998Z,6.20
2022-11-15T16:47:06.275Z,4.90
2022-11-15T16:49:36.808Z,6.78
2022-11-15T16:52:06.956Z,7.20
2022-11-15T16:54:37.012Z,5.13
2022-11-15T16:57:07.137Z,6.28
2022-11-15T16:59:38.450Z,5.30
2022-11-15T17:02:16.235Z,4.43
2022-11-15T17:04:46.523Z,6.28
2022-11-15T17:07:16.843Z,4.63
2022-11-15T17:09:46.976Z,5.35
2022-11-15T17:12:17.097Z,4.10
2022-11-15T17:14:49.790Z,5.28
2022-11-15T17:17:20.123Z,4.07
2022-11-15T17:19:50.183Z,6.03
2022-11-15T17:22:20.156Z,6.35
2022-11-15T17:24:50.198Z,4.68
2022-11-15T17:27:20.262Z,4.53
2022-11-15T17:29:50.248Z,5.35
2022-11-15T17:32:20.256Z,5.38
2022-11-15T17:34:50.266Z,3.88
2022-11-15T17:37:20.279Z,6.10
2022-11-15T17:39:50.474Z,4.68
2022-11-15T17:42:20.723Z,6.60
2022-11-15T17:44:50.854Z,4.22
2022-11-15T17:47:20.828Z,5.30
2022-11-15T17:49:50.836Z,5.70
2022-11-15T17:52:20.823Z,4.35
2022-11-15T17:54:50.796Z,4.30
2022-11-15T17:57:20.896Z,4.43
2022-11-15T17:59:51.265Z,5.18
2022-11-15T18:02:21.715Z,9.05
2022-11-15T18:04:51.859Z,6.90
2022-11-15T18:07:22.057Z,5.32
2022-11-15T18:09:52.292Z,4.28
2022-11-15T18:12:22.487Z,3.95
2022-11-15T18:14:52.765Z,6.45
2022-11-15T18:17:23.041Z,4.63
2022-11-15T18:19:53.228Z,4.78
2022-11-15T18:22:24.248Z,4.25
2022-11-15T18:24:54.832Z,6.97
2022-11-15T18:27:25.027Z,5.47
2022-11-15T18:29:55.379Z,5.32
2022-11-15T18:32:25.571Z,4.15
2022-11-15T18:34:57.074Z,4.32
2022-11-15T18:37:27.271Z,6.38
2022-11-15T18:39:57.254Z,6.05
2022-11-15T18:42:27.442Z,6.13
2022-11-15T18:44:57.722Z,6.73
2022-11-15T18:47:27.947Z,6.93
2022-11-15T18:50:01.709Z,6.30
2022-11-15T18:52:31.946Z,5.57
2022-11-15T18:55:02.306Z,4.85
2022-11-15T18:57:33.216Z,4.45
2022-11-15T19:00:03.452Z,4.43
2022-11-15T19:02:33.714Z,5.10
2022-11-15T19:05:03.976Z,5.60
2022-11-15T19:07:34.090Z,5.07
2022-11-15T19:10:05.027Z,4.82
2022-11-15T19:12:35.218Z,4.65
2022-11-15T19:15:09.937Z,5.50
2022-11-15T19:17:40.459Z,4.78
2022-11-15T19:20:10.911Z,4.13
2022-11-15T19:22:41.129Z,7.60
2022-11-15T19:25:13.035Z,5.03
2022-11-15T19:27:43.258Z,3.65
2022-11-15T19:30:14.121Z,4.72
2022-11-15T19:35:14.845Z,7.53
2022-11-15T19:37:44.983Z,4.53
2022-11-15T19:40:14.967Z,4.60
2022-11-15T19:42:44.971Z,5.50
2022-11-15T19:45:14.968Z,5.75
2022-11-15T19:47:44.990Z,5.68
2022-11-15T19:50:15.378Z,3.53
2022-11-15T19:52:45.750Z,4.97
2022-11-15T19:55:16.279Z,6.07
2022-11-15T19:57:46.322Z,4.93
2022-11-15T20:00:16.623Z,3.33
2022-11-15T20:02:46.756Z,4.45
2022-11-15T20:05:18.553Z,5.13
2022-11-15T20:07:51.668Z,6.55
2022-11-15T20:10:21.911Z,4.93
2022-11-15T20:12:52.302Z,5.45
2022-11-15T20:15:22.963Z,5.20
2022-11-15T20:17:53.226Z,3.60
2022-11-15T20:20:23.410Z,6.32
2022-11-15T20:22:55.065Z,4.45
2022-11-15T20:25:25.311Z,5.60
2022-11-15T20:27:55.647Z,6.78
2022-11-15T20:30:25.804Z,6.13
2022-11-15T20:32:55.800Z,8.38
2022-11-15T20:35:26.498Z,6.85
2022-11-15T20:37:56.700Z,6.85
2022-11-15T20:40:26.863Z,7.88
2022-11-15T20:42:57.104Z,5.93
2022-11-15T20:45:27.322Z,7.93
2022-11-15T20:48:03.615Z,5.82
2022-11-15T20:50:42.771Z,5.85
2022-11-15T20:53:19.091Z,7.68
2022-11-15T20:55:53.257Z,6.18
2022-11-15T20:58:23.397Z,6.97
2022-11-15T21:00:57.796Z,8.38
2022-11-15T21:03:28.054Z,7.45
2022-11-15T21:05:58.271Z,7.28
2022-11-15T21:08:28.751Z,8.52
2022-11-15T21:11:17.043Z,10.75
2022-11-15T21:13:47.212Z,5.72
2022-11-15T21:16:19.069Z,8.25
2022-11-15T21:18:49.217Z,9.18
2022-11-15T21:21:19.355Z,9.70
2022-11-15T21:23:49.982Z,14.48
2022-11-15T21:26:20.187Z,22.48
2022-11-15T21:28:50.657Z,22.10
2022-11-15T21:31:20.941Z,27.77
2022-11-15T21:33:51.139Z,20.65
2022-11-15T21:36:21.425Z,21.30
2022-11-15T21:38:51.646Z,16.90
2022-11-15T21:41:21.759Z,15.68
2022-11-15T21:43:51.813Z,17.85
2022-11-15T21:46:21.828Z,11.10
2022-11-15T21:48:52.112Z,15.43
2022-11-15T21:51:22.130Z,14.90
2022-11-15T21:53:52.705Z,13.18
2022-11-15T21:56:23.018Z,13.60
2022-11-15T21:58:53.250Z,11.45
2022-11-15T22:01:42.945Z,13.18
2022-11-15T22:04:13.764Z,11.90
2022-11-15T22:06:43.998Z,11.87
2022-11-15T22:09:14.313Z,13.52
2022-11-15T22:11:45.152Z,12.30
2022-11-15T22:14:15.663Z,12.23
2022-11-15T22:16:46.102Z,11.90
2022-11-15T22:19:16.534Z,13.50
2022-11-15T22:21:46.919Z,11.77
2022-11-15T22:24:17.228Z,13.23
2022-11-15T22:26:47.512Z,10.25
2022-11-15T22:29:17.770Z,13.55
2022-11-15T22:31:48.202Z,13.50
2022-11-15T22:34:18.737Z,17.17
2022-11-15T22:37:18.267Z,12.45
2022-11-15T22:39:39.293Z,13.73
2022-11-15T22:42:10.100Z,13.80
2022-11-15T22:44:40.341Z,13.40
2022-11-15T22:47:10.624Z,11.07
2022-11-15T22:49:40.872Z,14.95
2022-11-15T22:52:11.414Z,12.65
2022-11-15T22:54:42.921Z,11.40
2022-11-15T22:57:13.500Z,15.60
2022-11-15T22:59:44.659Z,12.75
2022-11-15T23:02:15.151Z,16.05
2022-11-15T23:04:45.906Z,15.18
2022-11-15T23:07:16.562Z,13.85
2022-11-15T23:09:51.852Z,14.27
2022-11-15T23:12:40.814Z,15.63
2022-11-15T23:15:11.472Z,13.57
2022-11-15T23:17:41.687Z,14.43
2022-11-15T23:20:41.480Z,11.80
2022-11-15T23:23:02.565Z,17.58
2022-11-15T23:25:32.690Z,13.02
2022-11-15T23:28:05.233Z,17.10
2022-11-15T23:30:57.921Z,12.70
2022-11-15T23:33:46.301Z,11.88
2022-11-15T23:36:16.470Z,13.95
2022-11-15T23:38:46.739Z,15.60
2022-11-15T23:41:17.022Z,11.80
2022-11-15T23:43:47.241Z,14.40
2022-11-15T23:46:17.475Z,15.50
2022-11-15T23:48:47.690Z,15.68
2022-11-15T23:51:17.925Z,16.15
2022-11-15T23:53:48.302Z,14.65
2022-11-15T23:56:20.613Z,18.73
2022-11-15T23:58:51.644Z,17.55
